Newcastle, Antigua

9:12 PM AST on December 19, 2014 (GMT -0400)
Newcastle | Change Station
CLOSE
Current Station
Airport
Location: Nevis,
Elevation: 56 ft
Nearby Weather Stations

Elev 56 ft 17.21 °N, 62.59 °W | Updated 12 minutes ago

Scattered Clouds
Scattered Clouds
77 °F
Feels Like 77 °F
N
15
Wind Variable Wind from ENE

Today
High -- | Low -- °F
--% Chance of Precip.
Yesterday
High -- | Low -- °F
Precip. -- in
6:34 AM 5:40 PM
Waning Crescent, 5% visible
Pressure 29.98 in
Visibility 6.2 miles
Clouds Scattered Clouds 1700 ft
Dew Point 72 °F
Humidity 83%
Rainfall 0.00 in
Snow Depth Not available.
UV 0 out of 12
Pollen Not available.
Air Quality Not available.
Flu Activity Not available.
METAR TKPN 200100Z 07013KT 9999 VCSH SCT017 25/22 Q1015

More Conditions Fewer Conditions

Pressure 29.98 in
Visibility 6.2 miles
Clouds Scattered Clouds 1700 ft
Dew Point 72 °F
Humidity 83%
Rainfall 0.00 in
Snow Depth Not available.
UV 0 out of 12
Pollen Not available.
Air Quality Not available.
Flu Activity Not available.
METAR TKPN 200100Z 07013KT 9999 VCSH SCT017 25/22 Q1015

More Conditions Fewer Conditions

10-Day Weather Forecast

Almanac

Astronomy

Dec. 19, 2014 Rise Set
Actual Time
Civil Twilight
Nautical Twilight
Astronomical Twilight
Moon
Length of Visible Light
Length of Day
Tomorrow will be .
, % of the Moon is Illuminated

Today's Extremes

Country Highs Country Lows

Community

WunderPhotos

Upload Photos

1,779,099 photos uploaded!

WunderBlogs® & News

Nearby

Air Quality

  Air Quality AQ Index Pollutant
Not available.

Snow Depth

Station Depth Elevation

Earthquake Activity

City Distance Mag. Time & Date
Minimum magnitude displayed is 2.5.

Coastal Water Temperatures

Place Temperature

Nearby Weather Stations